Time;durP1;ratioP1;P1;durP2;ratioP2;P2;SDS_P1;SDS_P2;PMS_P1;PMS_P2;Temp;Humidity;BMP_temperature;BMP_pressure;BME280_temperature;BME280_humidity;BME280_pressure;Samples;Min_cycle;Max_cycle;Signal;HPM_P1;HPM_P2
2023/09/11 00:00:19;;;;;;;;;;;21.30;57.40;;;;;;5054265;28;20364;-66
2023/09/11 00:02:44;;;;;;;;;;;21.30;57.60;;;;;;5052928;28;19913;-66
2023/09/11 00:05:10;;;;;;;;;;;21.30;57.60;;;;;;5033991;28;19913;-66
2023/09/11 00:07:36;;;;;;;;;;;21.30;57.50;;;;;;5033932;28;19991;-66
2023/09/11 00:10:01;;;;;;;;;;;21.30;57.60;;;;;;5033905;28;19932;-66
2023/09/11 00:12:26;;;;;;;;;;;21.30;57.60;;;;;;5034161;28;19909;-66
2023/09/11 00:14:52;;;;;;;;;;;21.30;57.60;;;;;;5034422;28;19928;-67
2023/09/11 00:17:17;;;;;;;;;;;21.30;57.80;;;;;;5033986;28;20383;-66
2023/09/11 00:19:43;;;;;;;;;;;21.20;57.80;;;;;;5033799;28;20279;-66
2023/09/11 00:22:08;;;;;;;;;;;21.20;57.80;;;;;;5033520;28;19932;-66
2023/09/11 00:24:34;;;;;;;;;;;21.20;57.80;;;;;;5033766;28;19979;-66
2023/09/11 00:26:59;;;;;;;;;;;21.20;57.90;;;;;;5033459;28;20003;-66
2023/09/11 00:29:25;;;;;;;;;;;21.10;58.00;;;;;;5033819;28;19928;-67
2023/09/11 00:31:51;;;;;;;;;;;21.10;58.00;;;;;;5033798;28;19921;-66
2023/09/11 00:34:17;;;;;;;;;;;21.10;58.10;;;;;;5033702;28;20292;-66
2023/09/11 00:36:42;;;;;;;;;;;21.10;58.00;;;;;;5033367;28;19917;-67
2023/09/11 00:39:08;;;;;;;;;;;21.00;58.00;;;;;;5046790;28;19980;-66
2023/09/11 00:41:33;;;;;;;;;;;21.00;58.00;;;;;;5033314;28;19921;-66
2023/09/11 00:43:58;;;;;;;;;;;21.00;58.10;;;;;;5039957;28;19916;-66
2023/09/11 00:46:24;;;;;;;;;;;21.00;58.10;;;;;;5044345;28;19909;-66
2023/09/11 00:48:51;;;;;;;;;;;20.90;58.30;;;;;;5052897;28;20352;-66
2023/09/11 00:51:17;;;;;;;;;;;20.90;58.40;;;;;;5041175;28;20368;-66
2023/09/11 00:53:43;;;;;;;;;;;21.00;58.50;;;;;;5032979;28;19917;-64
2023/09/11 00:56:08;;;;;;;;;;;21.00;58.50;;;;;;5032872;28;19913;-64
2023/09/11 00:58:34;;;;;;;;;;;21.00;58.50;;;;;;5032925;28;19928;-64
2023/09/11 01:01:00;;;;;;;;;;;21.00;58.50;;;;;;5032921;28;20008;-64
2023/09/11 01:03:26;;;;;;;;;;;21.00;58.50;;;;;;5032965;28;19924;-64
2023/09/11 01:05:52;;;;;;;;;;;21.00;58.50;;;;;;5032092;28;19963;-64
2023/09/11 01:08:19;;;;;;;;;;;21.00;58.50;;;;;;5032434;28;20352;-66
2023/09/11 01:10:44;;;;;;;;;;;20.90;58.50;;;;;;5032416;28;19917;-66
2023/09/11 01:13:10;;;;;;;;;;;20.90;58.60;;;;;;5032599;28;20319;-66
2023/09/11 01:15:39;;;;;;;;;;;20.90;58.70;;;;;;5032642;28;19920;-66
2023/09/11 01:18:09;;;;;;;;;;;20.90;58.80;;;;;;5032569;28;20381;-66
2023/09/11 01:21:01;;;;;;;;;;;20.80;58.90;;;;;;5031141;28;19999;-66
2023/09/11 01:23:39;;;;;;;;;;;20.80;58.80;;;;;;5029836;28;19913;-66
2023/09/11 01:26:23;;;;;;;;;;;20.80;58.90;;;;;;5032518;28;19920;-66
2023/09/11 01:29:11;;;;;;;;;;;20.80;58.90;;;;;;5032522;28;20259;-66
2023/09/11 01:31:37;;;;;;;;;;;20.70;59.00;;;;;;5032300;28;20434;-66
2023/09/11 01:34:03;;;;;;;;;;;20.70;59.10;;;;;;5032304;28;19921;-67
2023/09/11 01:36:29;;;;;;;;;;;20.70;59.00;;;;;;5032331;28;19960;-66
2023/09/11 01:38:55;;;;;;;;;;;20.70;58.90;;;;;;5032273;28;20009;-66
2023/09/11 01:41:25;;;;;;;;;;;20.60;58.90;;;;;;5032233;28;20026;-66
2023/09/11 01:43:51;;;;;;;;;;;20.60;58.90;;;;;;5032369;28;19917;-66
2023/09/11 01:46:17;;;;;;;;;;;20.60;58.90;;;;;;5037089;28;19913;-66
2023/09/11 01:48:43;;;;;;;;;;;20.60;58.90;;;;;;5050250;28;20011;-66
2023/09/11 01:51:10;;;;;;;;;;;20.60;59.00;;;;;;5041071;28;19913;-66
2023/09/11 01:53:36;;;;;;;;;;;20.50;59.10;;;;;;5032191;28;20339;-67
2023/09/11 01:56:02;;;;;;;;;;;20.50;59.20;;;;;;5032050;28;19952;-66
2023/09/11 01:58:27;;;;;;;;;;;20.50;59.20;;;;;;5032048;28;20379;-66
2023/09/11 02:00:52;;;;;;;;;;;20.50;59.20;;;;;;5031997;28;19924;-67
2023/09/11 02:03:19;;;;;;;;;;;20.40;59.20;;;;;;5031839;28;20012;-67
2023/09/11 02:05:44;;;;;;;;;;;20.40;59.20;;;;;;5031817;28;19923;-67
2023/09/11 02:08:10;;;;;;;;;;;20.40;59.20;;;;;;5031729;28;19913;-64
2023/09/11 02:10:35;;;;;;;;;;;20.30;59.10;;;;;;5031829;28;19917;-65
2023/09/11 02:13:01;;;;;;;;;;;20.30;59.20;;;;;;5031702;28;19920;-65
2023/09/11 02:15:26;;;;;;;;;;;20.40;59.20;;;;;;5031750;28;19916;-65
2023/09/11 02:17:52;;;;;;;;;;;20.30;59.20;;;;;;5030983;28;19949;-66
2023/09/11 02:20:17;;;;;;;;;;;20.30;59.20;;;;;;5031492;28;19914;-66
2023/09/11 02:22:43;;;;;;;;;;;20.30;59.30;;;;;;5031318;28;19954;-66
2023/09/11 02:25:08;;;;;;;;;;;20.30;59.30;;;;;;5031624;28;19909;-66
2023/09/11 02:27:34;;;;;;;;;;;20.30;59.30;;;;;;5031876;28;19913;-66
2023/09/11 02:29:59;;;;;;;;;;;20.20;59.40;;;;;;5032194;28;19917;-65
2023/09/11 02:32:25;;;;;;;;;;;20.30;59.60;;;;;;5031361;28;19909;-66
2023/09/11 02:34:50;;;;;;;;;;;20.20;59.60;;;;;;5031808;28;19921;-66
2023/09/11 02:37:16;;;;;;;;;;;20.20;59.60;;;;;;5031704;28;19909;-66
2023/09/11 02:39:41;;;;;;;;;;;20.20;59.50;;;;;;5030388;28;19921;-66
2023/09/11 02:42:07;;;;;;;;;;;20.20;59.60;;;;;;5030368;28;19999;-66
2023/09/11 02:44:32;;;;;;;;;;;20.20;59.70;;;;;;5031983;28;20004;-67
2023/09/11 02:46:58;;;;;;;;;;;20.10;59.80;;;;;;5042317;28;20245;-66
2023/09/11 02:49:23;;;;;;;;;;;20.20;59.80;;;;;;5051643;28;19924;-66
2023/09/11 02:51:49;;;;;;;;;;;20.10;59.70;;;;;;5035481;28;20356;-66
2023/09/11 02:54:14;;;;;;;;;;;20.10;59.70;;;;;;5031935;28;19917;-66
2023/09/11 02:56:40;;;;;;;;;;;20.10;59.70;;;;;;5031631;28;19909;-66
2023/09/11 02:59:05;;;;;;;;;;;20.00;59.70;;;;;;5031488;28;19950;-66
2023/09/11 03:01:31;;;;;;;;;;;20.00;59.70;;;;;;5029989;28;19913;-66
2023/09/11 03:03:57;;;;;;;;;;;20.00;59.70;;;;;;5031191;28;19913;-65
2023/09/11 03:06:22;;;;;;;;;;;20.00;59.60;;;;;;5031548;28;19917;-65
2023/09/11 03:08:48;;;;;;;;;;;19.90;59.60;;;;;;5031331;28;19913;-65
2023/09/11 03:11:13;;;;;;;;;;;19.90;59.60;;;;;;5031612;28;19923;-66
2023/09/11 03:13:39;;;;;;;;;;;19.80;59.70;;;;;;5031136;28;20283;-65
2023/09/11 03:16:11;;;;;;;;;;;19.80;59.80;;;;;;5031187;28;19961;-65
2023/09/11 03:18:38;;;;;;;;;;;19.80;59.80;;;;;;5030936;28;19913;-64
2023/09/11 03:21:03;;;;;;;;;;;19.80;59.90;;;;;;5031321;28;19960;-64
2023/09/11 03:23:29;;;;;;;;;;;19.80;59.90;;;;;;5031006;28;20357;-64
2023/09/11 03:25:55;;;;;;;;;;;19.80;60.00;;;;;;5031373;28;19917;-64
2023/09/11 03:28:20;;;;;;;;;;;19.80;60.00;;;;;;5031201;28;20355;-64
2023/09/11 03:30:46;;;;;;;;;;;19.70;60.00;;;;;;5034285;28;20372;-64
2023/09/11 03:33:11;;;;;;;;;;;19.70;60.00;;;;;;5034800;28;19909;-65
2023/09/11 03:35:36;;;;;;;;;;;19.70;59.90;;;;;;5033482;28;19918;-66
2023/09/11 03:38:02;;;;;;;;;;;19.60;60.00;;;;;;5034822;28;19917;-66
2023/09/11 03:40:28;;;;;;;;;;;19.60;60.20;;;;;;5034711;28;19929;-65
2023/09/11 03:42:54;;;;;;;;;;;19.60;60.10;;;;;;5033591;28;19910;-65
2023/09/11 03:45:20;;;;;;;;;;;19.50;60.10;;;;;;5034409;28;19918;-65
2023/09/11 03:47:46;;;;;;;;;;;19.50;60.10;;;;;;5051787;28;19909;-66
2023/09/11 03:50:11;;;;;;;;;;;19.50;60.10;;;;;;5051691;28;19971;-66
2023/09/11 03:52:37;;;;;;;;;;;19.50;60.20;;;;;;5034559;28;19909;-66
2023/09/11 03:55:03;;;;;;;;;;;19.40;60.10;;;;;;5034189;28;19929;-66
2023/09/11 03:57:28;;;;;;;;;;;19.40;60.20;;;;;;5034205;28;20000;-65
2023/09/11 03:59:54;;;;;;;;;;;19.30;60.30;;;;;;5034258;28;20008;-65
2023/09/11 04:02:19;;;;;;;;;;;19.30;60.40;;;;;;5034295;28;19913;-65
2023/09/11 04:04:45;;;;;;;;;;;19.30;60.50;;;;;;5034181;28;20341;-65
2023/09/11 04:07:10;;;;;;;;;;;19.30;60.50;;;;;;5034279;28;20300;-65
2023/09/11 04:09:36;;;;;;;;;;;19.30;60.50;;;;;;5032528;28;20332;-65
2023/09/11 04:12:02;;;;;;;;;;;19.30;60.50;;;;;;5034889;28;19921;-67
2023/09/11 04:14:28;;;;;;;;;;;19.20;60.50;;;;;;5033783;28;19935;-65
2023/09/11 04:16:53;;;;;;;;;;;19.20;60.60;;;;;;5034006;28;19917;-66
2023/09/11 04:19:19;;;;;;;;;;;19.20;60.60;;;;;;5033857;28;19914;-66
2023/09/11 04:21:44;;;;;;;;;;;19.20;60.70;;;;;;5033974;28;19917;-66
2023/09/11 04:24:12;;;;;;;;;;;19.20;61.00;;;;;;5034026;28;19909;-66
2023/09/11 04:26:39;;;;;;;;;;;19.20;61.00;;;;;;5034356;28;19924;-66
2023/09/11 04:29:05;;;;;;;;;;;19.20;61.10;;;;;;5033970;28;19913;-66
2023/09/11 04:31:30;;;;;;;;;;;19.10;61.00;;;;;;5033992;28;19928;-66
2023/09/11 04:33:56;;;;;;;;;;;19.10;61.00;;;;;;5033752;28;19909;-66
2023/09/11 04:36:21;;;;;;;;;;;19.10;61.20;;;;;;5033725;28;19917;-66
2023/09/11 04:38:47;;;;;;;;;;;19.00;61.30;;;;;;5033596;28;19919;-66
2023/09/11 04:41:13;;;;;;;;;;;19.00;61.40;;;;;;5032969;28;19917;-66
2023/09/11 04:43:39;;;;;;;;;;;19.00;61.50;;;;;;5033808;28;19959;-66
2023/09/11 04:46:04;;;;;;;;;;;19.00;61.50;;;;;;5037266;28;19916;-66
2023/09/11 04:48:29;;;;;;;;;;;19.00;61.70;;;;;;5053328;28;19913;-66
2023/09/11 04:50:55;;;;;;;;;;;19.00;61.70;;;;;;5044823;28;19924;-67
2023/09/11 04:53:20;;;;;;;;;;;19.00;61.70;;;;;;5033539;28;20384;-67
2023/09/11 04:55:46;;;;;;;;;;;19.00;61.80;;;;;;5033646;28;20399;-67
2023/09/11 04:58:12;;;;;;;;;;;19.00;62.00;;;;;;5033455;28;19952;-66
2023/09/11 05:00:37;;;;;;;;;;;19.00;62.00;;;;;;5033365;28;19917;-66
2023/09/11 05:03:03;;;;;;;;;;;19.10;62.00;;;;;;5033083;28;19916;-66
2023/09/11 05:05:29;;;;;;;;;;;19.10;62.10;;;;;;5033025;28;19918;-66
2023/09/11 05:07:54;;;;;;;;;;;19.10;62.20;;;;;;5032790;28;19909;-66
2023/09/11 05:10:20;;;;;;;;;;;19.10;62.20;;;;;;5032906;28;20386;-66
2023/09/11 05:12:46;;;;;;;;;;;19.20;62.30;;;;;;5032874;28;19916;-66
2023/09/11 05:15:12;;;;;;;;;;;19.20;62.50;;;;;;5032832;28;19975;-66
2023/09/11 05:17:38;;;;;;;;;;;19.30;62.60;;;;;;5032639;28;19920;-65
2023/09/11 05:20:06;;;;;;;;;;;19.40;62.80;;;;;;5032718;28;20288;-66
2023/09/11 05:22:32;;;;;;;;;;;19.50;63.10;;;;;;5032509;28;19913;-67
2023/09/11 05:24:59;;;;;;;;;;;19.70;63.30;;;;;;5032676;28;20003;-67
2023/09/11 05:27:25;;;;;;;;;;;19.90;63.60;;;;;;5032298;28;19909;-67
2023/09/11 05:29:50;;;;;;;;;;;20.10;63.90;;;;;;5032348;28;19913;-67
2023/09/11 05:32:18;;;;;;;;;;;20.30;64.10;;;;;;5042612;28;20007;-67
2023/09/11 05:34:43;;;;;;;;;;;20.50;64.40;;;;;;5052035;28;19909;-67
2023/09/11 05:37:09;;;;;;;;;;;20.80;64.60;;;;;;5045289;28;19909;-67
2023/09/11 05:39:34;;;;;;;;;;;21.00;64.80;;;;;;5044963;28;19913;-67
2023/09/11 05:42:00;;;;;;;;;;;21.30;64.80;;;;;;5030954;28;20280;-66
2023/09/11 05:44:25;;;;;;;;;;;21.50;65.20;;;;;;5032173;28;19909;-66
2023/09/11 05:46:50;;;;;;;;;;;21.90;65.60;;;;;;5047608;28;19925;-66
2023/09/11 05:49:16;;;;;;;;;;;22.30;65.80;;;;;;5052175;28;19913;-66
2023/09/11 05:51:41;;;;;;;;;;;22.60;65.90;;;;;;5033603;28;19955;-66
2023/09/11 05:54:07;;;;;;;;;;;23.00;66.20;;;;;;5031938;28;19909;-66
2023/09/11 05:56:33;;;;;;;;;;;23.40;66.40;;;;;;5031841;28;19921;-66
2023/09/11 05:58:58;;;;;;;;;;;23.80;66.50;;;;;;5031954;28;19924;-66
2023/09/11 06:01:24;;;;;;;;;;;24.20;66.60;;;;;;5029769;28;19975;-66
2023/09/11 06:03:50;;;;;;;;;;;24.60;66.60;;;;;;5031812;28;19913;-66
2023/09/11 06:06:15;;;;;;;;;;;25.00;66.70;;;;;;5031945;28;19913;-66
2023/09/11 06:08:41;;;;;;;;;;;25.40;66.20;;;;;;5031695;28;19917;-67
2023/09/11 06:11:06;;;;;;;;;;;25.80;66.00;;;;;;5029573;28;20336;-66
2023/09/11 06:13:33;;;;;;;;;;;26.20;65.90;;;;;;5031635;28;19909;-67
2023/09/11 06:15:59;;;;;;;;;;;26.60;65.30;;;;;;5032318;28;19967;-67
2023/09/11 06:18:24;;;;;;;;;;;27.00;65.20;;;;;;5032188;28;19913;-67
2023/09/11 06:20:50;;;;;;;;;;;27.30;64.80;;;;;;5032026;28;19917;-67
2023/09/11 06:23:15;;;;;;;;;;;27.70;63.60;;;;;;5031763;28;19932;-66
2023/09/11 06:25:41;;;;;;;;;;;27.90;63.30;;;;;;5031634;28;19925;-67
2023/09/11 06:28:06;;;;;;;;;;;28.30;63.20;;;;;;5031843;28;19909;-67
2023/09/11 06:30:32;;;;;;;;;;;28.70;63.20;;;;;;5031853;28;19918;-67
2023/09/11 06:32:57;;;;;;;;;;;29.10;62.50;;;;;;5034294;28;19995;-67
2023/09/11 06:35:23;;;;;;;;;;;29.50;61.40;;;;;;5031985;28;19943;-67
2023/09/11 06:37:48;;;;;;;;;;;29.80;61.30;;;;;;5030513;28;19909;-67
2023/09/11 06:40:14;;;;;;;;;;;30.20;60.60;;;;;;5031473;28;19921;-67
2023/09/11 06:42:40;;;;;;;;;;;30.70;59.40;;;;;;5050796;28;19966;-67
2023/09/11 06:45:05;;;;;;;;;;;31.00;58.10;;;;;;5051457;28;20016;-68
2023/09/11 06:47:31;;;;;;;;;;;31.40;57.50;;;;;;5036308;28;19943;-67
2023/09/11 06:49:56;;;;;;;;;;;31.70;56.40;;;;;;5031859;28;19909;-67
2023/09/11 06:52:22;;;;;;;;;;;32.20;55.90;;;;;;5035831;28;20050;-67
2023/09/11 06:54:48;;;;;;;;;;;32.60;55.10;;;;;;5031298;28;19910;-68
2023/09/11 06:57:13;;;;;;;;;;;32.90;53.40;;;;;;5031425;28;19913;-68
2023/09/11 06:59:39;;;;;;;;;;;33.20;50.60;;;;;;5031120;28;20423;-66
2023/09/11 07:02:04;;;;;;;;;;;33.40;50.50;;;;;;5037099;28;20063;-68
2023/09/11 07:04:30;;;;;;;;;;;33.80;49.40;;;;;;5038962;28;19913;-68
2023/09/11 07:06:56;;;;;;;;;;;34.10;48.10;;;;;;5041158;28;20374;-68
2023/09/11 07:09:23;;;;;;;;;;;34.40;46.50;;;;;;5041701;28;19921;-66
2023/09/11 07:11:52;;;;;;;;;;;34.60;45.40;;;;;;5042747;28;19921;-66
2023/09/11 07:14:18;;;;;;;;;;;34.90;45.10;;;;;;5041860;28;20011;-66
2023/09/11 07:16:44;;;;;;;;;;;35.30;44.40;;;;;;5037865;28;20272;-67
2023/09/11 07:19:10;;;;;;;;;;;35.70;43.00;;;;;;5034833;28;19920;-66
2023/09/11 07:21:35;;;;;;;;;;;36.00;42.50;;;;;;5034636;28;19913;-66
2023/09/11 07:24:01;;;;;;;;;;;36.30;41.80;;;;;;5037025;28;19925;-66
2023/09/11 07:26:26;;;;;;;;;;;36.70;41.50;;;;;;5034905;28;19920;-67
2023/09/11 07:28:53;;;;;;;;;;;37.20;41.10;;;;;;5034990;28;19921;-66
2023/09/11 07:31:18;;;;;;;;;;;37.60;40.40;;;;;;5053109;28;19920;-67
2023/09/11 07:33:44;;;;;;;;;;;37.90;39.20;;;;;;5038957;28;19917;-67
2023/09/11 07:36:09;;;;;;;;;;;38.30;38.90;;;;;;5034584;28;19909;-68
2023/09/11 07:38:35;;;;;;;;;;;38.60;38.50;;;;;;5033072;28;19924;-67
2023/09/11 07:41:00;;;;;;;;;;;38.90;37.60;;;;;;5034333;28;19913;-67
2023/09/11 07:43:26;;;;;;;;;;;39.20;37.50;;;;;;5037740;28;19917;-68
2023/09/11 07:45:51;;;;;;;;;;;39.40;36.50;;;;;;5034898;28;19936;-68
2023/09/11 07:48:17;;;;;;;;;;;39.70;35.90;;;;;;5053872;28;19967;-66
2023/09/11 07:50:42;;;;;;;;;;;39.90;35.20;;;;;;5047110;28;19913;-67
2023/09/11 07:53:08;;;;;;;;;;;40.00;34.20;;;;;;5037266;28;19921;-67
2023/09/11 07:55:39;;;;;;;;;;;40.20;34.10;;;;;;5042345;28;20285;-67
2023/09/11 07:58:05;;;;;;;;;;;40.40;33.90;;;;;;5054240;28;20024;-67
2023/09/11 08:00:30;;;;;;;;;;;40.70;32.60;;;;;;5044708;28;20470;-66
2023/09/11 08:02:56;;;;;;;;;;;40.80;32.60;;;;;;5047993;28;19921;-67
2023/09/11 08:05:22;;;;;;;;;;;41.10;32.40;;;;;;5053980;28;19908;-67
2023/09/11 08:07:47;;;;;;;;;;;41.30;31.60;;;;;;5052571;28;20341;-66
2023/09/11 08:10:14;;;;;;;;;;;41.50;31.30;;;;;;5053755;28;19928;-66
2023/09/11 08:12:39;;;;;;;;;;;41.70;31.10;;;;;;5045437;28;19917;-66
2023/09/11 08:15:05;;;;;;;;;;;42.00;30.70;;;;;;5040524;28;20334;-67
2023/09/11 08:17:31;;;;;;;;;;;42.20;30.20;;;;;;5042678;28;20397;-66
2023/09/11 08:19:57;;;;;;;;;;;42.40;29.30;;;;;;5052742;28;19971;-66
2023/09/11 08:22:22;;;;;;;;;;;42.50;29.10;;;;;;5043904;28;19917;-66
2023/09/11 08:24:48;;;;;;;;;;;42.70;29.00;;;;;;5033533;28;19942;-67
2023/09/11 08:27:13;;;;;;;;;;;42.80;28.50;;;;;;5033375;28;19917;-68
2023/09/11 08:29:39;;;;;;;;;;;42.90;28.50;;;;;;5053806;28;19920;-67
2023/09/11 08:32:04;;;;;;;;;;;43.10;28.40;;;;;;5051608;28;19921;-67
2023/09/11 08:34:30;;;;;;;;;;;43.30;28.60;;;;;;5052621;28;20004;-68
2023/09/11 08:36:57;;;;;;;;;;;43.70;28.40;;;;;;5033761;28;19920;-67
2023/09/11 08:39:23;;;;;;;;;;;43.90;28.20;;;;;;5033504;28;19948;-67
2023/09/11 08:41:50;;;;;;;;;;;44.20;27.70;;;;;;5033042;28;19952;-67
2023/09/11 08:44:15;;;;;;;;;;;44.30;27.40;;;;;;5033187;28;20395;-68
2023/09/11 08:46:45;;;;;;;;;;;44.40;27.10;;;;;;5036405;28;19933;-67
2023/09/11 08:49:11;;;;;;;;;;;44.50;26.90;;;;;;5043975;28;20441;-67
2023/09/11 08:51:41;;;;;;;;;;;44.60;26.80;;;;;;5037415;28;19909;-67
2023/09/11 08:54:09;;;;;;;;;;;44.60;26.60;;;;;;5044471;28;19916;-67
2023/09/11 08:56:35;;;;;;;;;;;44.60;26.20;;;;;;5053097;28;19966;-66
2023/09/11 08:59:02;;;;;;;;;;;44.70;26.00;;;;;;5044550;28;19925;-67
2023/09/11 09:01:28;;;;;;;;;;;44.70;26.00;;;;;;5032756;28;19967;-67
2023/09/11 09:03:54;;;;;;;;;;;44.70;26.00;;;;;;5045660;28;19975;-68
2023/09/11 09:06:20;;;;;;;;;;;44.80;26.00;;;;;;5044058;28;19959;-67
2023/09/11 09:08:46;;;;;;;;;;;45.00;26.10;;;;;;5039466;28;19923;-67
2023/09/11 09:11:13;;;;;;;;;;;45.10;25.90;;;;;;5048573;28;20367;-67
2023/09/11 09:13:39;;;;;;;;;;;45.20;25.70;;;;;;5053151;28;19960;-67
2023/09/11 09:16:04;;;;;;;;;;;45.20;25.50;;;;;;5039385;28;19959;-67
2023/09/11 09:18:30;;;;;;;;;;;45.30;25.50;;;;;;5051396;28;20348;-66
2023/09/11 09:20:55;;;;;;;;;;;45.40;25.40;;;;;;5050325;28;20372;-68
2023/09/11 09:23:31;;;;;;;;;;;45.50;25.40;;;;;;5050075;28;20352;-67
2023/09/11 09:26:03;;;;;;;;;;;45.50;25.30;;;;;;5037944;28;19919;-67
2023/09/11 09:28:28;;;;;;;;;;;45.60;25.40;;;;;;5036136;28;20049;-67
2023/09/11 09:30:55;;;;;;;;;;;45.60;25.20;;;;;;5040376;28;19920;-68
2023/09/11 09:33:20;;;;;;;;;;;45.50;25.20;;;;;;5040745;28;19971;-68
2023/09/11 09:35:46;;;;;;;;;;;45.60;25.20;;;;;;5033489;28;19917;-68
2023/09/11 09:38:12;;;;;;;;;;;45.70;25.30;;;;;;5038032;28;20375;-68
2023/09/11 09:40:39;;;;;;;;;;;45.80;25.20;;;;;;5037003;28;19913;-68
2023/09/11 09:43:05;;;;;;;;;;;45.90;25.10;;;;;;5033497;28;19928;-68
2023/09/11 09:45:35;;;;;;;;;;;46.00;25.00;;;;;;5032688;28;20179;-68
2023/09/11 09:48:05;;;;;;;;;;;46.30;25.00;;;;;;5031369;28;19921;-68
2023/09/11 09:50:45;;;;;;;;;;;46.50;24.90;;;;;;5031877;28;19963;-68
2023/09/11 09:53:19;;;;;;;;;;;46.70;24.60;;;;;;5033355;28;19917;-67
2023/09/11 09:55:45;;;;;;;;;;;46.80;24.60;;;;;;5038916;28;19936;-68
2023/09/11 09:58:12;;;;;;;;;;;46.80;23.90;;;;;;5049922;28;20450;-66
2023/09/11 10:00:38;;;;;;;;;;;46.80;24.00;;;;;;5043659;28;19924;-66
2023/09/11 10:03:03;;;;;;;;;;;46.80;24.00;;;;;;5029864;28;20447;-66
2023/09/11 10:05:29;;;;;;;;;;;46.80;23.80;;;;;;5031770;28;19984;-67
2023/09/11 10:07:58;;;;;;;;;;;46.80;23.50;;;;;;5044917;28;19927;-67
2023/09/11 10:10:25;;;;;;;;;;;46.80;23.70;;;;;;5048945;28;19917;-67
2023/09/11 10:13:00;;;;;;;;;;;47.00;23.50;;;;;;5049852;28;19913;-67
2023/09/11 10:15:25;;;;;;;;;;;47.00;23.30;;;;;;5034175;28;19960;-68
2023/09/11 10:17:54;;;;;;;;;;;46.90;22.80;;;;;;5031300;28;19960;-67
2023/09/11 10:20:20;;;;;;;;;;;46.80;22.80;;;;;;5044850;28;19924;-68
2023/09/11 10:22:46;;;;;;;;;;;46.80;22.90;;;;;;5044026;28;19928;-67
2023/09/11 10:25:12;;;;;;;;;;;46.90;22.90;;;;;;5032040;28;20416;-67
2023/09/11 10:27:37;;;;;;;;;;;46.90;22.80;;;;;;5050032;28;19956;-67
2023/09/11 10:30:04;;;;;;;;;;;46.90;23.00;;;;;;5047886;28;19921;-67
2023/09/11 10:32:37;;;;;;;;;;;47.00;22.80;;;;;;5048257;28;20388;-67
2023/09/11 10:35:04;;;;;;;;;;;46.90;22.60;;;;;;5035538;28;20020;-67
2023/09/11 10:37:31;;;;;;;;;;;46.90;22.50;;;;;;5031110;28;19913;-67
2023/09/11 10:39:57;;;;;;;;;;;46.80;22.70;;;;;;5036031;28;20020;-67
2023/09/11 10:42:23;;;;;;;;;;;46.80;22.30;;;;;;5049080;28;20288;-67
2023/09/11 10:44:52;;;;;;;;;;;46.70;22.60;;;;;;5051623;28;19936;-67
2023/09/11 10:47:19;;;;;;;;;;;46.70;22.70;;;;;;5032710;28;20029;-67
2023/09/11 10:49:48;;;;;;;;;;;46.70;22.80;;;;;;5030514;28;20474;-67
2023/09/11 10:52:13;;;;;;;;;;;46.80;22.90;;;;;;5031202;28;19917;-68
2023/09/11 10:54:40;;;;;;;;;;;46.70;22.80;;;;;;5031688;28;19914;-67
2023/09/11 10:57:05;;;;;;;;;;;46.70;23.00;;;;;;5045089;28;20399;-67
2023/09/11 10:59:31;;;;;;;;;;;46.80;22.60;;;;;;5050244;28;19921;-68
2023/09/11 11:01:58;;;;;;;;;;;46.70;22.60;;;;;;5051356;28;20360;-67
2023/09/11 11:04:24;;;;;;;;;;;46.70;22.50;;;;;;5051381;28;20370;-67
2023/09/11 11:06:53;;;;;;;;;;;46.60;22.40;;;;;;5039512;28;19921;-64
2023/09/11 11:09:34;;;;;;;;;;;46.60;22.10;;;;;;5043832;28;20351;-66
2023/09/11 11:12:04;;;;;;;;;;;46.50;22.20;;;;;;5036669;28;20060;-67
2023/09/11 11:14:30;;;;;;;;;;;46.30;22.10;;;;;;5039986;28;19920;-66
2023/09/11 11:17:16;;;;;;;;;;;46.00;22.50;;;;;;5033632;28;20327;-67
2023/09/11 11:20:00;;;;;;;;;;;46.00;22.70;;;;;;5045323;28;19925;-67
2023/09/11 11:22:30;;;;;;;;;;;45.90;22.50;;;;;;5034059;28;19984;-67
2023/09/11 11:24:55;;;;;;;;;;;45.80;22.50;;;;;;5049750;28;20363;-67
2023/09/11 11:27:21;;;;;;;;;;;45.80;22.60;;;;;;5047175;28;19929;-67
2023/09/11 11:29:46;;;;;;;;;;;45.70;22.50;;;;;;5042507;28;19982;-67
2023/09/11 11:32:12;;;;;;;;;;;45.60;22.50;;;;;;5031169;28;19944;-67
2023/09/11 11:34:38;;;;;;;;;;;45.50;22.60;;;;;;5035935;28;19913;-67
2023/09/11 11:37:04;;;;;;;;;;;45.40;22.70;;;;;;5037762;28;19917;-66
2023/09/11 11:39:33;;;;;;;;;;;45.30;23.00;;;;;;5043400;28;19923;-67
2023/09/11 11:42:00;;;;;;;;;;;45.20;23.30;;;;;;5031227;28;19932;-66
2023/09/11 11:44:30;;;;;;;;;;;45.20;23.00;;;;;;5030594;28;20249;-66
2023/09/11 11:46:55;;;;;;;;;;;45.10;23.10;;;;;;5045726;28;19957;-66
2023/09/11 11:49:22;;;;;;;;;;;45.10;23.30;;;;;;5032925;28;20361;-67
2023/09/11 11:51:47;;;;;;;;;;;45.20;23.20;;;;;;5030960;28;19917;-68
2023/09/11 11:54:19;;;;;;;;;;;45.10;23.30;;;;;;5033482;28;19948;-66
2023/09/11 11:56:45;;;;;;;;;;;45.00;23.40;;;;;;5035494;28;19928;-67
2023/09/11 11:59:10;;;;;;;;;;;45.00;23.50;;;;;;5046682;28;19917;-67
2023/09/11 12:01:37;;;;;;;;;;;44.90;23.70;;;;;;5040399;28;19961;-67
2023/09/11 12:04:04;;;;;;;;;;;45.00;23.60;;;;;;5033601;28;20361;-66
2023/09/11 12:06:29;;;;;;;;;;;45.10;23.80;;;;;;5034603;28;19938;-66
2023/09/11 12:08:55;;;;;;;;;;;45.00;23.30;;;;;;5053074;28;20395;-66
2023/09/11 12:11:20;;;;;;;;;;;44.80;23.40;;;;;;5039880;28;20165;-67
2023/09/11 12:13:46;;;;;;;;;;;44.80;23.20;;;;;;5032493;28;20047;-67
2023/09/11 12:16:12;;;;;;;;;;;44.60;23.20;;;;;;5034352;28;20337;-67
2023/09/11 12:18:40;;;;;;;;;;;44.40;23.30;;;;;;5052213;28;19951;-67
2023/09/11 12:21:06;;;;;;;;;;;44.20;23.40;;;;;;5042492;28;19921;-67
2023/09/11 12:23:32;;;;;;;;;;;44.00;23.40;;;;;;5041118;28;19964;-66
2023/09/11 12:25:58;;;;;;;;;;;43.80;23.20;;;;;;5053809;28;19932;-66
2023/09/11 12:28:24;;;;;;;;;;;43.50;23.40;;;;;;5040545;28;19960;-66
2023/09/11 12:30:50;;;;;;;;;;;43.20;23.50;;;;;;5036820;28;19994;-67
2023/09/11 12:33:23;;;;;;;;;;;43.00;23.80;;;;;;5034819;28;19918;-67
2023/09/11 12:35:51;;;;;;;;;;;42.80;23.80;;;;;;5054062;28;20003;-67
2023/09/11 12:38:17;;;;;;;;;;;42.70;24.00;;;;;;5046069;28;19917;-67
2023/09/11 12:40:42;;;;;;;;;;;42.60;24.00;;;;;;5046694;28;19924;-66
2023/09/11 12:43:09;;;;;;;;;;;42.60;24.20;;;;;;5048543;28;20016;-66
2023/09/11 12:45:34;;;;;;;;;;;42.60;24.10;;;;;;5039992;28;19982;-66
2023/09/11 12:48:00;;;;;;;;;;;42.50;24.20;;;;;;5034948;28;19916;-66
2023/09/11 12:50:26;;;;;;;;;;;42.40;24.30;;;;;;5032757;28;19928;-66
2023/09/11 12:52:52;;;;;;;;;;;42.40;24.20;;;;;;5031526;28;19929;-67
2023/09/11 12:55:18;;;;;;;;;;;42.30;24.10;;;;;;5046233;28;19979;-67
2023/09/11 12:57:43;;;;;;;;;;;42.20;24.00;;;;;;5042624;28;19922;-66
2023/09/11 13:00:09;;;;;;;;;;;42.10;24.10;;;;;;5044681;28;20020;-67
2023/09/11 13:02:34;;;;;;;;;;;42.00;24.20;;;;;;5034798;28;20011;-67
2023/09/11 13:05:00;;;;;;;;;;;41.90;24.30;;;;;;5052315;28;19940;-67
2023/09/11 13:07:26;;;;;;;;;;;41.80;24.40;;;;;;5034862;28;19917;-67
2023/09/11 13:09:51;;;;;;;;;;;41.80;24.50;;;;;;5051986;28;19943;-67
2023/09/11 13:12:18;;;;;;;;;;;41.70;24.50;;;;;;5041962;28;19918;-67
2023/09/11 13:14:43;;;;;;;;;;;41.70;24.80;;;;;;5033856;28;19964;-67
2023/09/11 13:17:09;;;;;;;;;;;41.60;24.40;;;;;;5032790;28;20384;-67
2023/09/11 13:19:35;;;;;;;;;;;41.50;24.70;;;;;;5047384;28;19917;-67
2023/09/11 13:22:00;;;;;;;;;;;41.30;24.70;;;;;;5034535;28;20416;-67
2023/09/11 13:24:26;;;;;;;;;;;41.30;24.60;;;;;;5035038;28;19964;-67
2023/09/11 13:26:51;;;;;;;;;;;41.10;24.70;;;;;;5033009;28;20015;-67
2023/09/11 13:29:17;;;;;;;;;;;41.00;25.10;;;;;;5045407;28;20011;-67
2023/09/11 13:31:42;;;;;;;;;;;40.90;25.00;;;;;;5035913;28;19917;-67
2023/09/11 13:34:08;;;;;;;;;;;40.80;25.30;;;;;;5033050;28;19917;-67
2023/09/11 13:36:34;;;;;;;;;;;40.80;25.50;;;;;;5033150;28;19917;-67
2023/09/11 13:39:00;;;;;;;;;;;40.60;25.70;;;;;;5040291;28;19978;-68
2023/09/11 13:41:25;;;;;;;;;;;40.50;25.80;;;;;;5032079;28;19918;-67
2023/09/11 13:43:51;;;;;;;;;;;40.30;25.80;;;;;;5032056;28;19913;-67
2023/09/11 13:46:16;;;;;;;;;;;40.10;26.10;;;;;;5050501;28;19917;-66
2023/09/11 13:48:42;;;;;;;;;;;39.80;26.20;;;;;;5039763;28;19921;-67
2023/09/11 13:51:07;;;;;;;;;;;39.70;26.50;;;;;;5027495;28;19956;-67
2023/09/11 13:53:32;;;;;;;;;;;39.50;26.60;;;;;;5049570;28;19931;-65
2023/09/11 13:55:58;;;;;;;;;;;39.30;26.80;;;;;;5058399;28;19920;-66
2023/09/11 13:58:23;;;;;;;;;;;39.20;27.00;;;;;;5030138;28;19924;-65
2023/09/11 14:00:49;;;;;;;;;;;39.10;27.20;;;;;;5032199;28;20361;-65
2023/09/11 14:03:14;;;;;;;;;;;39.00;27.30;;;;;;5037051;28;19959;-66
2023/09/11 14:05:40;;;;;;;;;;;38.80;27.40;;;;;;5049238;28;19912;-66
2023/09/11 14:08:05;;;;;;;;;;;38.70;27.50;;;;;;5048782;28;19955;-65
2023/09/11 14:10:31;;;;;;;;;;;38.70;27.60;;;;;;5036543;28;20373;-66